sensor_id;sensor_type;location;lat;lon;timestamp;pressure;altitude;pressure_sealevel;temperature;humidity
49611;BME280;35515;48.766;9.176;2023-03-26T00:00:08;97890.38;;;9.16;81.36
49611;BME280;35515;48.766;9.176;2023-03-26T00:02:41;97887.88;;;9.14;79.71
49611;BME280;35515;48.766;9.176;2023-03-26T00:05:08;97892.88;;;9.04;80.83
49611;BME280;35515;48.766;9.176;2023-03-26T00:07:35;97891.59;;;9.27;79.60
49611;BME280;35515;48.766;9.176;2023-03-26T00:10:01;97887.44;;;9.17;79.35
49611;BME280;35515;48.766;9.176;2023-03-26T00:12:28;97878.16;;;8.93;81.34
49611;BME280;35515;48.766;9.176;2023-03-26T00:14:54;97886.63;;;8.97;81.36
49611;BME280;35515;48.766;9.176;2023-03-26T00:17:21;97889.16;;;8.92;81.84
49611;BME280;35515;48.766;9.176;2023-03-26T00:19:49;97894.16;;;8.81;82.97
49611;BME280;35515;48.766;9.176;2023-03-26T00:22:17;97888.31;;;8.98;82.11
49611;BME280;35515;48.766;9.176;2023-03-26T00:24:44;97886.84;;;8.89;82.11
49611;BME280;35515;48.766;9.176;2023-03-26T00:27:13;97891.66;;;8.93;82.04
49611;BME280;35515;48.766;9.176;2023-03-26T00:29:40;97888.94;;;9.07;81.50
49611;BME280;35515;48.766;9.176;2023-03-26T00:32:06;97889.75;;;9.07;80.67
49611;BME280;35515;48.766;9.176;2023-03-26T00:34:33;97886.25;;;9.00;80.63
49611;BME280;35515;48.766;9.176;2023-03-26T00:37:01;97884.34;;;9.00;80.37
49611;BME280;35515;48.766;9.176;2023-03-26T00:39:28;97896.00;;;8.87;81.80
49611;BME280;35515;48.766;9.176;2023-03-26T00:41:57;97886.06;;;8.81;82.81
49611;BME280;35515;48.766;9.176;2023-03-26T00:44:31;97893.72;;;8.78;84.97
49611;BME280;35515;48.766;9.176;2023-03-26T00:46:57;97885.00;;;9.02;82.45
49611;BME280;35515;48.766;9.176;2023-03-26T00:49:24;97878.75;;;8.82;82.57
49611;BME280;35515;48.766;9.176;2023-03-26T00:51:51;97874.81;;;8.84;83.07
49611;BME280;35515;48.766;9.176;2023-03-26T00:54:19;97875.84;;;8.83;83.40
49611;BME280;35515;48.766;9.176;2023-03-26T00:56:46;97870.25;;;8.78;83.78
49611;BME280;35515;48.766;9.176;2023-03-26T00:59:12;97867.13;;;8.81;82.83
49611;BME280;35515;48.766;9.176;2023-03-26T01:01:39;97852.19;;;8.79;82.25
49611;BME280;35515;48.766;9.176;2023-03-26T01:04:25;97841.81;;;8.76;82.61
49611;BME280;35515;48.766;9.176;2023-03-26T01:06:55;97847.59;;;8.79;81.98
49611;BME280;35515;48.766;9.176;2023-03-26T01:09:28;97837.81;;;8.85;81.33
49611;BME280;35515;48.766;9.176;2023-03-26T01:11:57;97835.94;;;9.06;79.46
49611;BME280;35515;48.766;9.176;2023-03-26T01:14:25;97831.34;;;9.06;78.99
49611;BME280;35515;48.766;9.176;2023-03-26T01:16:54;97838.00;;;9.03;79.70
49611;BME280;35515;48.766;9.176;2023-03-26T01:19:27;97832.59;;;8.97;79.26
49611;BME280;35515;48.766;9.176;2023-03-26T01:21:55;97830.53;;;8.99;79.30
49611;BME280;35515;48.766;9.176;2023-03-26T01:24:24;97811.00;;;8.97;79.65
49611;BME280;35515;48.766;9.176;2023-03-26T01:27:10;97808.09;;;9.05;79.24
49611;BME280;35515;48.766;9.176;2023-03-26T01:29:42;97801.41;;;9.14;77.92
49611;BME280;35515;48.766;9.176;2023-03-26T01:32:20;97808.94;;;8.99;79.55
49611;BME280;35515;48.766;9.176;2023-03-26T01:34:57;97807.03;;;9.06;78.73
49611;BME280;35515;48.766;9.176;2023-03-26T01:37:33;97805.38;;;9.05;78.38
49611;BME280;35515;48.766;9.176;2023-03-26T01:40:08;97799.31;;;9.10;78.27
49611;BME280;35515;48.766;9.176;2023-03-26T01:42:42;97791.91;;;8.92;79.99
49611;BME280;35515;48.766;9.176;2023-03-26T01:45:13;97781.22;;;9.10;78.45
49611;BME280;35515;48.766;9.176;2023-03-26T01:47:41;97778.59;;;8.83;79.71
49611;BME280;35515;48.766;9.176;2023-03-26T01:50:09;97782.38;;;8.82;81.21
49611;BME280;35515;48.766;9.176;2023-03-26T01:52:35;97785.25;;;8.81;81.26
49611;BME280;35515;48.766;9.176;2023-03-26T01:55:04;97771.50;;;9.02;79.16
49611;BME280;35515;48.766;9.176;2023-03-26T01:57:44;97773.16;;;9.03;79.11
49611;BME280;35515;48.766;9.176;2023-03-26T02:00:20;97755.72;;;8.99;79.00
49611;BME280;35515;48.766;9.176;2023-03-26T02:03:03;97752.78;;;9.01;79.86
49611;BME280;35515;48.766;9.176;2023-03-26T02:05:37;97742.97;;;9.20;77.76
49611;BME280;35515;48.766;9.176;2023-03-26T02:08:15;97739.28;;;9.08;77.97
49611;BME280;35515;48.766;9.176;2023-03-26T02:10:49;97742.22;;;8.93;78.87
49611;BME280;35515;48.766;9.176;2023-03-26T02:13:18;97732.91;;;8.82;80.40
49611;BME280;35515;48.766;9.176;2023-03-26T02:15:54;97718.97;;;8.92;79.93
49611;BME280;35515;48.766;9.176;2023-03-26T02:18:21;97719.56;;;8.94;79.65
49611;BME280;35515;48.766;9.176;2023-03-26T02:20:48;97715.00;;;8.94;80.16
49611;BME280;35515;48.766;9.176;2023-03-26T02:23:17;97703.19;;;8.89;79.60
49611;BME280;35515;48.766;9.176;2023-03-26T02:25:44;97706.19;;;9.12;78.31
49611;BME280;35515;48.766;9.176;2023-03-26T02:28:12;97689.19;;;9.05;78.24
49611;BME280;35515;48.766;9.176;2023-03-26T02:30:39;97695.00;;;9.02;78.41
49611;BME280;35515;48.766;9.176;2023-03-26T02:33:07;97688.56;;;9.03;78.25
49611;BME280;35515;48.766;9.176;2023-03-26T02:35:34;97699.81;;;9.00;78.86
49611;BME280;35515;48.766;9.176;2023-03-26T02:38:00;97705.59;;;9.03;77.65
49611;BME280;35515;48.766;9.176;2023-03-26T02:40:27;97712.09;;;8.96;78.53
49611;BME280;35515;48.766;9.176;2023-03-26T02:42:53;97700.41;;;9.02;78.38
49611;BME280;35515;48.766;9.176;2023-03-26T02:45:21;97704.78;;;9.03;78.08
49611;BME280;35515;48.766;9.176;2023-03-26T02:47:48;97687.78;;;8.96;78.57
49611;BME280;35515;48.766;9.176;2023-03-26T02:50:15;97693.78;;;8.98;78.61
49611;BME280;35515;48.766;9.176;2023-03-26T02:52:41;97691.84;;;9.18;77.22
49611;BME280;35515;48.766;9.176;2023-03-26T02:55:09;97694.59;;;9.05;77.05
49611;BME280;35515;48.766;9.176;2023-03-26T02:57:36;97695.25;;;8.94;78.66
49611;BME280;35515;48.766;9.176;2023-03-26T03:00:03;97685.72;;;8.91;78.10
49611;BME280;35515;48.766;9.176;2023-03-26T03:02:39;97673.25;;;8.90;78.41
49611;BME280;35515;48.766;9.176;2023-03-26T03:05:08;97667.59;;;9.05;77.56
49611;BME280;35515;48.766;9.176;2023-03-26T03:07:36;97665.91;;;9.04;77.59
49611;BME280;35515;48.766;9.176;2023-03-26T03:10:04;97657.69;;;8.85;78.36
49611;BME280;35515;48.766;9.176;2023-03-26T03:12:34;97651.84;;;8.89;78.42
49611;BME280;35515;48.766;9.176;2023-03-26T03:15:01;97649.22;;;8.75;79.62
49611;BME280;35515;48.766;9.176;2023-03-26T03:17:28;97645.13;;;9.04;77.57
49611;BME280;35515;48.766;9.176;2023-03-26T03:19:55;97640.53;;;9.12;77.29
49611;BME280;35515;48.766;9.176;2023-03-26T03:22:22;97634.56;;;8.96;78.82
49611;BME280;35515;48.766;9.176;2023-03-26T03:24:49;97629.53;;;9.07;77.89
49611;BME280;35515;48.766;9.176;2023-03-26T03:27:16;97619.81;;;8.99;78.21
49611;BME280;35515;48.766;9.176;2023-03-26T03:29:43;97626.31;;;8.84;79.46
49611;BME280;35515;48.766;9.176;2023-03-26T03:32:10;97613.78;;;8.97;79.43
49611;BME280;35515;48.766;9.176;2023-03-26T03:34:37;97604.91;;;8.90;79.66
49611;BME280;35515;48.766;9.176;2023-03-26T03:37:04;97598.53;;;8.77;81.19
49611;BME280;35515;48.766;9.176;2023-03-26T03:39:31;97599.56;;;8.76;80.72
49611;BME280;35515;48.766;9.176;2023-03-26T03:41:58;97597.81;;;8.89;80.10
49611;BME280;35515;48.766;9.176;2023-03-26T03:44:24;97602.91;;;8.72;82.04
49611;BME280;35515;48.766;9.176;2023-03-26T03:46:51;97583.75;;;8.80;80.34
49611;BME280;35515;48.766;9.176;2023-03-26T03:49:19;97594.56;;;8.80;80.99
49611;BME280;35515;48.766;9.176;2023-03-26T03:51:46;97594.72;;;8.85;80.40
49611;BME280;35515;48.766;9.176;2023-03-26T03:54:14;97600.16;;;8.78;81.03
49611;BME280;35515;48.766;9.176;2023-03-26T03:56:41;97596.59;;;8.84;80.60
49611;BME280;35515;48.766;9.176;2023-03-26T03:59:09;97590.63;;;8.82;80.38
49611;BME280;35515;48.766;9.176;2023-03-26T04:01:36;97584.06;;;8.97;79.62
49611;BME280;35515;48.766;9.176;2023-03-26T04:04:03;97572.47;;;8.90;79.75
49611;BME280;35515;48.766;9.176;2023-03-26T04:06:30;97570.94;;;8.68;81.25
49611;BME280;35515;48.766;9.176;2023-03-26T04:08:56;97574.66;;;8.67;81.87
49611;BME280;35515;48.766;9.176;2023-03-26T04:11:24;97575.09;;;8.64;82.19
49611;BME280;35515;48.766;9.176;2023-03-26T04:13:50;97569.53;;;8.59;81.86
49611;BME280;35515;48.766;9.176;2023-03-26T04:16:17;97567.47;;;8.55;82.88
49611;BME280;35515;48.766;9.176;2023-03-26T04:18:44;97553.97;;;8.55;83.30
49611;BME280;35515;48.766;9.176;2023-03-26T04:21:11;97551.47;;;8.60;82.34
49611;BME280;35515;48.766;9.176;2023-03-26T04:23:40;97546.81;;;8.74;80.45
49611;BME280;35515;48.766;9.176;2023-03-26T04:26:12;97541.28;;;8.94;78.64
49611;BME280;35515;48.766;9.176;2023-03-26T04:28:44;97547.72;;;8.93;78.70
49611;BME280;35515;48.766;9.176;2023-03-26T04:31:16;97525.53;;;8.91;79.41
49611;BME280;35515;48.766;9.176;2023-03-26T04:33:48;97523.84;;;8.90;79.46
49611;BME280;35515;48.766;9.176;2023-03-26T04:36:19;97525.63;;;8.77;79.60
49611;BME280;35515;48.766;9.176;2023-03-26T04:38:47;97516.47;;;8.72;81.27
49611;BME280;35515;48.766;9.176;2023-03-26T04:41:16;97506.97;;;8.69;81.64
49611;BME280;35515;48.766;9.176;2023-03-26T04:43:44;97501.13;;;8.72;81.23
49611;BME280;35515;48.766;9.176;2023-03-26T04:46:14;97498.13;;;8.87;80.08
49611;BME280;35515;48.766;9.176;2023-03-26T04:48:42;97481.50;;;8.83;80.33
49611;BME280;35515;48.766;9.176;2023-03-26T04:51:09;97477.81;;;8.78;81.18
49611;BME280;35515;48.766;9.176;2023-03-26T04:53:43;97468.44;;;8.80;79.91
49611;BME280;35515;48.766;9.176;2023-03-26T04:56:19;97470.72;;;8.83;79.60
49611;BME280;35515;48.766;9.176;2023-03-26T04:58:59;97485.81;;;8.91;79.15
49611;BME280;35515;48.766;9.176;2023-03-26T05:01:26;97472.72;;;8.95;79.08
49611;BME280;35515;48.766;9.176;2023-03-26T05:03:54;97477.03;;;9.02;78.21
49611;BME280;35515;48.766;9.176;2023-03-26T05:09:05;97471.97;;;9.06;76.65
49611;BME280;35515;48.766;9.176;2023-03-26T05:11:32;97470.44;;;9.17;75.41
49611;BME280;35515;48.766;9.176;2023-03-26T05:14:00;97484.63;;;9.12;75.37
49611;BME280;35515;48.766;9.176;2023-03-26T05:16:27;97478.88;;;9.02;76.05
49611;BME280;35515;48.766;9.176;2023-03-26T05:18:54;97479.63;;;9.16;75.00
49611;BME280;35515;48.766;9.176;2023-03-26T05:21:20;97470.66;;;9.15;74.52
49611;BME280;35515;48.766;9.176;2023-03-26T05:23:47;97451.69;;;8.97;74.67
49611;BME280;35515;48.766;9.176;2023-03-26T05:26:14;97448.84;;;8.92;77.21
49611;BME280;35515;48.766;9.176;2023-03-26T05:28:41;97445.25;;;8.98;75.46
49611;BME280;35515;48.766;9.176;2023-03-26T05:31:09;97428.59;;;9.01;74.86
49611;BME280;35515;48.766;9.176;2023-03-26T05:33:36;97418.47;;;8.96;74.85
49611;BME280;35515;48.766;9.176;2023-03-26T05:36:04;97422.59;;;8.99;74.61
49611;BME280;35515;48.766;9.176;2023-03-26T05:38:33;97432.38;;;9.00;75.51
49611;BME280;35515;48.766;9.176;2023-03-26T05:41:02;97425.28;;;8.99;76.84
49611;BME280;35515;48.766;9.176;2023-03-26T05:43:29;97421.97;;;9.22;73.69
49611;BME280;35515;48.766;9.176;2023-03-26T05:45:56;97422.72;;;9.29;72.69
49611;BME280;35515;48.766;9.176;2023-03-26T05:48:24;97414.69;;;9.23;71.87
49611;BME280;35515;48.766;9.176;2023-03-26T05:50:53;97413.25;;;9.20;72.72
49611;BME280;35515;48.766;9.176;2023-03-26T05:53:20;97409.28;;;9.23;69.88
49611;BME280;35515;48.766;9.176;2023-03-26T05:55:48;97402.53;;;9.32;70.46
49611;BME280;35515;48.766;9.176;2023-03-26T05:58:20;97398.25;;;9.24;70.32
49611;BME280;35515;48.766;9.176;2023-03-26T06:00:46;97387.31;;;9.37;67.92
49611;BME280;35515;48.766;9.176;2023-03-26T06:03:13;97390.06;;;9.31;69.04
49611;BME280;35515;48.766;9.176;2023-03-26T06:05:41;97374.00;;;9.17;66.73
49611;BME280;35515;48.766;9.176;2023-03-26T06:08:08;97365.03;;;9.17;69.04
49611;BME280;35515;48.766;9.176;2023-03-26T06:10:36;97358.59;;;9.18;69.89
49611;BME280;35515;48.766;9.176;2023-03-26T06:13:03;97354.47;;;9.15;71.50
49611;BME280;35515;48.766;9.176;2023-03-26T06:15:30;97349.44;;;9.19;72.83
49611;BME280;35515;48.766;9.176;2023-03-26T06:17:56;97348.00;;;8.98;73.77
49611;BME280;35515;48.766;9.176;2023-03-26T06:20:23;97345.28;;;8.98;75.10
49611;BME280;35515;48.766;9.176;2023-03-26T06:22:51;97339.66;;;8.99;76.06
49611;BME280;35515;48.766;9.176;2023-03-26T06:25:17;97341.84;;;8.91;77.62
49611;BME280;35515;48.766;9.176;2023-03-26T06:27:44;97331.53;;;8.81;80.04
49611;BME280;35515;48.766;9.176;2023-03-26T06:30:11;97325.19;;;8.94;79.28
49611;BME280;35515;48.766;9.176;2023-03-26T06:32:38;97328.06;;;9.17;74.10
49611;BME280;35515;48.766;9.176;2023-03-26T06:35:05;97313.78;;;9.10;74.18
49611;BME280;35515;48.766;9.176;2023-03-26T06:37:32;97322.50;;;9.12;72.89
49611;BME280;35515;48.766;9.176;2023-03-26T06:39:59;97315.75;;;9.22;71.89
49611;BME280;35515;48.766;9.176;2023-03-26T06:42:26;97315.91;;;9.27;72.30
49611;BME280;35515;48.766;9.176;2023-03-26T06:44:53;97323.31;;;9.13;72.88
49611;BME280;35515;48.766;9.176;2023-03-26T06:47:19;97312.72;;;9.11;73.26
49611;BME280;35515;48.766;9.176;2023-03-26T06:49:46;97303.28;;;9.20;72.87
49611;BME280;35515;48.766;9.176;2023-03-26T06:52:12;97309.97;;;9.18;71.98
49611;BME280;35515;48.766;9.176;2023-03-26T06:54:39;97302.38;;;9.27;71.55
49611;BME280;35515;48.766;9.176;2023-03-26T06:57:06;97305.69;;;9.10;72.77
49611;BME280;35515;48.766;9.176;2023-03-26T06:59:33;97303.75;;;9.17;73.08
49611;BME280;35515;48.766;9.176;2023-03-26T07:01:59;97300.97;;;9.06;74.24
49611;BME280;35515;48.766;9.176;2023-03-26T07:04:26;97295.94;;;9.09;72.95
49611;BME280;35515;48.766;9.176;2023-03-26T07:06:53;97289.03;;;8.95;73.58
49611;BME280;35515;48.766;9.176;2023-03-26T07:09:20;97287.91;;;9.02;74.19
49611;BME280;35515;48.766;9.176;2023-03-26T07:11:46;97286.31;;;8.95;73.29
49611;BME280;35515;48.766;9.176;2023-03-26T07:14:14;97272.66;;;9.08;72.67
49611;BME280;35515;48.766;9.176;2023-03-26T07:16:41;97266.97;;;8.98;73.56
49611;BME280;35515;48.766;9.176;2023-03-26T07:19:07;97271.84;;;9.08;73.44
49611;BME280;35515;48.766;9.176;2023-03-26T07:21:34;97258.53;;;9.06;73.15
49611;BME280;35515;48.766;9.176;2023-03-26T07:24:01;97264.41;;;9.22;71.69
49611;BME280;35515;48.766;9.176;2023-03-26T07:26:33;97257.81;;;8.99;73.31
49611;BME280;35515;48.766;9.176;2023-03-26T07:29:08;97256.84;;;8.93;74.87
49611;BME280;35515;48.766;9.176;2023-03-26T07:31:44;97246.28;;;8.92;75.31
49611;BME280;35515;48.766;9.176;2023-03-26T07:34:27;97242.78;;;9.03;75.61
49611;BME280;35515;48.766;9.176;2023-03-26T07:37:02;97234.78;;;8.96;77.13
49611;BME280;35515;48.766;9.176;2023-03-26T07:39:40;97223.75;;;8.98;77.88
49611;BME280;35515;48.766;9.176;2023-03-26T07:42:20;97227.06;;;9.00;78.16
49611;BME280;35515;48.766;9.176;2023-03-26T07:44:57;97238.00;;;9.05;78.51
49611;BME280;35515;48.766;9.176;2023-03-26T07:47:31;97230.50;;;8.89;78.68
49611;BME280;35515;48.766;9.176;2023-03-26T07:49:59;97220.16;;;8.85;79.81
49611;BME280;35515;48.766;9.176;2023-03-26T07:52:27;97209.97;;;8.69;81.59
49611;BME280;35515;48.766;9.176;2023-03-26T07:54:55;97210.84;;;8.63;82.40
49611;BME280;35515;48.766;9.176;2023-03-26T07:57:31;97215.63;;;8.98;82.04
49611;BME280;35515;48.766;9.176;2023-03-26T08:00:05;97202.13;;;8.98;82.59
49611;BME280;35515;48.766;9.176;2023-03-26T08:02:51;97223.00;;;8.91;83.58
49611;BME280;35515;48.766;9.176;2023-03-26T08:05:26;97217.84;;;8.70;86.39
49611;BME280;35515;48.766;9.176;2023-03-26T08:08:11;97215.41;;;8.62;86.63
49611;BME280;35515;48.766;9.176;2023-03-26T08:10:49;97207.19;;;8.57;87.83
49611;BME280;35515;48.766;9.176;2023-03-26T08:13:24;97197.66;;;8.55;88.39
49611;BME280;35515;48.766;9.176;2023-03-26T08:15:59;97206.41;;;8.68;88.62
49611;BME280;35515;48.766;9.176;2023-03-26T08:18:41;97189.03;;;8.64;88.58
49611;BME280;35515;48.766;9.176;2023-03-26T08:21:14;97178.53;;;8.56;89.16
49611;BME280;35515;48.766;9.176;2023-03-26T08:23:50;97174.97;;;8.74;89.60
49611;BME280;35515;48.766;9.176;2023-03-26T08:26:29;97162.75;;;8.72;89.51
49611;BME280;35515;48.766;9.176;2023-03-26T08:29:03;97161.19;;;8.82;89.64
49611;BME280;35515;48.766;9.176;2023-03-26T08:31:33;97156.69;;;8.76;90.30
49611;BME280;35515;48.766;9.176;2023-03-26T08:34:01;97166.00;;;8.80;91.52
49611;BME280;35515;48.766;9.176;2023-03-26T08:36:28;97159.97;;;8.78;91.33
49611;BME280;35515;48.766;9.176;2023-03-26T08:38:54;97149.31;;;8.83;91.18
49611;BME280;35515;48.766;9.176;2023-03-26T08:44:42;97138.22;;;8.92;92.21
49611;BME280;35515;48.766;9.176;2023-03-26T08:47:39;97137.47;;;8.84;92.25
49611;BME280;35515;48.766;9.176;2023-03-26T08:53:48;97142.13;;;8.96;93.87
49611;BME280;35515;48.766;9.176;2023-03-26T08:56:25;97143.44;;;9.05;93.15
49611;BME280;35515;48.766;9.176;2023-03-26T08:59:23;97133.84;;;9.09;94.09
49611;BME280;35515;48.766;9.176;2023-03-26T09:05:35;97134.00;;;9.26;93.00
49611;BME280;35515;48.766;9.176;2023-03-26T09:08:48;97121.78;;;9.35;91.04
49611;BME280;35515;48.766;9.176;2023-03-26T09:11:31;97132.16;;;9.39;92.92
49611;BME280;35515;48.766;9.176;2023-03-26T09:14:39;97127.13;;;9.54;91.38
49611;BME280;35515;48.766;9.176;2023-03-26T09:23:43;97141.31;;;9.80;88.87
49611;BME280;35515;48.766;9.176;2023-03-26T09:26:24;97150.09;;;9.75;90.01
49611;BME280;35515;48.766;9.176;2023-03-26T09:35:12;97144.84;;;10.04;89.22
49611;BME280;35515;48.766;9.176;2023-03-26T09:37:53;97142.50;;;9.96;87.41
49611;BME280;35515;48.766;9.176;2023-03-26T09:40:35;97134.84;;;10.16;88.32
49611;BME280;35515;48.766;9.176;2023-03-26T09:43:23;97125.31;;;10.26;87.57
49611;BME280;35515;48.766;9.176;2023-03-26T09:46:01;97121.88;;;10.42;85.75
49611;BME280;35515;48.766;9.176;2023-03-26T09:48:47;97120.84;;;10.43;85.36
49611;BME280;35515;48.766;9.176;2023-03-26T09:51:30;97126.34;;;10.60;83.08
49611;BME280;35515;48.766;9.176;2023-03-26T09:54:12;97121.66;;;10.56;82.68
49611;BME280;35515;48.766;9.176;2023-03-26T09:56:51;97129.50;;;10.69;82.88
49611;BME280;35515;48.766;9.176;2023-03-26T09:59:41;97107.25;;;10.67;82.51
49611;BME280;35515;48.766;9.176;2023-03-26T10:02:34;97114.78;;;10.65;81.69
49611;BME280;35515;48.766;9.176;2023-03-26T10:05:29;97130.31;;;10.69;82.14
49611;BME280;35515;48.766;9.176;2023-03-26T10:08:17;97109.47;;;10.70;79.72
49611;BME280;35515;48.766;9.176;2023-03-26T10:10:53;97111.09;;;10.83;76.38
49611;BME280;35515;48.766;9.176;2023-03-26T10:13:24;97106.88;;;11.04;77.86
49611;BME280;35515;48.766;9.176;2023-03-26T10:16:01;97118.47;;;10.87;76.79
49611;BME280;35515;48.766;9.176;2023-03-26T10:18:38;97126.84;;;10.86;76.28
49611;BME280;35515;48.766;9.176;2023-03-26T10:21:14;97112.00;;;10.88;74.54
49611;BME280;35515;48.766;9.176;2023-03-26T10:26:50;97112.22;;;10.99;75.79
49611;BME280;35515;48.766;9.176;2023-03-26T10:29:23;97110.44;;;10.93;76.88
49611;BME280;35515;48.766;9.176;2023-03-26T10:32:05;97108.09;;;10.96;76.33
49611;BME280;35515;48.766;9.176;2023-03-26T10:34:56;97101.38;;;10.99;72.77
49611;BME280;35515;48.766;9.176;2023-03-26T10:37:35;97093.25;;;10.99;74.02
49611;BME280;35515;48.766;9.176;2023-03-26T10:40:19;97102.03;;;11.06;73.15
49611;BME280;35515;48.766;9.176;2023-03-26T10:43:14;97098.59;;;11.11;73.20
49611;BME280;35515;48.766;9.176;2023-03-26T10:45:58;97095.94;;;11.28;70.57
49611;BME280;35515;48.766;9.176;2023-03-26T10:48:39;97097.66;;;11.34;66.66
49611;BME280;35515;48.766;9.176;2023-03-26T10:51:37;97103.34;;;11.49;63.76
49611;BME280;35515;48.766;9.176;2023-03-26T10:54:16;97112.13;;;11.57;63.27
49611;BME280;35515;48.766;9.176;2023-03-26T10:56:48;97110.50;;;11.90;59.76
49611;BME280;35515;48.766;9.176;2023-03-26T10:59:17;97118.41;;;11.91;59.55
49611;BME280;35515;48.766;9.176;2023-03-26T11:01:49;97122.28;;;11.78;59.40
49611;BME280;35515;48.766;9.176;2023-03-26T11:04:26;97127.28;;;11.86;58.52
49611;BME280;35515;48.766;9.176;2023-03-26T11:07:04;97103.72;;;12.04;57.92
49611;BME280;35515;48.766;9.176;2023-03-26T11:09:38;97103.28;;;12.12;56.28
49611;BME280;35515;48.766;9.176;2023-03-26T11:12:12;97118.50;;;11.96;56.26
49611;BME280;35515;48.766;9.176;2023-03-26T11:14:50;97119.91;;;11.99;55.45
49611;BME280;35515;48.766;9.176;2023-03-26T11:17:28;97123.81;;;11.91;56.79
49611;BME280;35515;48.766;9.176;2023-03-26T11:20:02;97110.09;;;11.81;57.46
49611;BME280;35515;48.766;9.176;2023-03-26T11:22:37;97107.16;;;11.82;55.63
49611;BME280;35515;48.766;9.176;2023-03-26T11:25:33;97113.56;;;11.76;55.88
49611;BME280;35515;48.766;9.176;2023-03-26T11:28:12;97098.34;;;11.75;56.53
49611;BME280;35515;48.766;9.176;2023-03-26T11:30:45;97102.53;;;11.66;57.67
49611;BME280;35515;48.766;9.176;2023-03-26T11:33:18;97084.03;;;11.63;58.07
49611;BME280;35515;48.766;9.176;2023-03-26T11:35:48;97093.16;;;11.57;58.85
49611;BME280;35515;48.766;9.176;2023-03-26T11:38:19;97084.31;;;11.78;58.64
49611;BME280;35515;48.766;9.176;2023-03-26T11:40:49;97086.53;;;11.98;56.38
49611;BME280;35515;48.766;9.176;2023-03-26T11:43:23;97093.22;;;12.13;56.28
49611;BME280;35515;48.766;9.176;2023-03-26T11:45:51;97075.56;;;12.10;55.06
49611;BME280;35515;48.766;9.176;2023-03-26T11:48:22;97079.38;;;12.31;52.33
49611;BME280;35515;48.766;9.176;2023-03-26T11:50:57;97068.69;;;12.25;53.20
49611;BME280;35515;48.766;9.176;2023-03-26T11:53:27;97069.91;;;12.34;51.35
49611;BME280;35515;48.766;9.176;2023-03-26T11:56:00;97075.59;;;12.32;51.44
49611;BME280;35515;48.766;9.176;2023-03-26T11:58:31;97067.19;;;12.34;52.28
49611;BME280;35515;48.766;9.176;2023-03-26T12:01:03;97073.81;;;12.43;50.89
49611;BME280;35515;48.766;9.176;2023-03-26T12:03:32;97065.28;;;12.57;49.34
49611;BME280;35515;48.766;9.176;2023-03-26T12:05:59;97060.56;;;12.47;49.84
49611;BME280;35515;48.766;9.176;2023-03-26T12:08:32;97067.69;;;12.75;50.75
49611;BME280;35515;48.766;9.176;2023-03-26T12:11:04;97052.31;;;12.86;48.52
49611;BME280;35515;48.766;9.176;2023-03-26T12:13:36;97052.22;;;13.03;47.16
49611;BME280;35515;48.766;9.176;2023-03-26T12:16:11;97067.41;;;12.99;47.49
49611;BME280;35515;48.766;9.176;2023-03-26T12:18:41;97068.41;;;12.93;47.31
49611;BME280;35515;48.766;9.176;2023-03-26T12:21:10;97061.44;;;13.02;46.78
49611;BME280;35515;48.766;9.176;2023-03-26T12:23:55;97060.19;;;13.10;46.21
49611;BME280;35515;48.766;9.176;2023-03-26T12:26:34;97059.31;;;13.04;46.48
49611;BME280;35515;48.766;9.176;2023-03-26T12:29:06;97061.25;;;13.09;47.14
49611;BME280;35515;48.766;9.176;2023-03-26T12:31:40;97052.53;;;13.07;48.04
49611;BME280;35515;48.766;9.176;2023-03-26T12:34:15;97054.03;;;13.19;46.13
49611;BME280;35515;48.766;9.176;2023-03-26T12:36:47;97057.56;;;13.20;44.62
49611;BME280;35515;48.766;9.176;2023-03-26T12:39:25;97048.75;;;13.08;44.89
49611;BME280;35515;48.766;9.176;2023-03-26T12:41:54;97058.19;;;13.00;44.79
49611;BME280;35515;48.766;9.176;2023-03-26T12:44:25;97055.09;;;12.91;44.74
49611;BME280;35515;48.766;9.176;2023-03-26T12:47:07;97058.66;;;12.92;45.33
49611;BME280;35515;48.766;9.176;2023-03-26T12:49:35;97054.59;;;12.94;44.96
49611;BME280;35515;48.766;9.176;2023-03-26T12:52:25;97069.59;;;13.02;49.18
49611;BME280;35515;48.766;9.176;2023-03-26T12:54:56;97047.84;;;13.02;49.66
49611;BME280;35515;48.766;9.176;2023-03-26T12:57:32;97038.50;;;12.87;55.39
49611;BME280;35515;48.766;9.176;2023-03-26T13:00:39;97047.47;;;12.66;57.12
49611;BME280;35515;48.766;9.176;2023-03-26T13:03:29;97022.69;;;12.84;48.92
49611;BME280;35515;48.766;9.176;2023-03-26T13:06:21;97016.69;;;13.10;46.03
49611;BME280;35515;48.766;9.176;2023-03-26T13:12:12;97027.97;;;13.29;47.38
49611;BME280;35515;48.766;9.176;2023-03-26T13:17:53;97009.84;;;13.34;45.27
49611;BME280;35515;48.766;9.176;2023-03-26T13:20:28;97006.78;;;13.58;43.74
49611;BME280;35515;48.766;9.176;2023-03-26T13:23:05;97015.97;;;13.52;43.49
49611;BME280;35515;48.766;9.176;2023-03-26T13:25:42;97004.59;;;13.28;43.64
49611;BME280;35515;48.766;9.176;2023-03-26T13:28:25;96998.56;;;13.20;44.16
49611;BME280;35515;48.766;9.176;2023-03-26T13:31:00;96998.06;;;13.29;43.46
49611;BME280;35515;48.766;9.176;2023-03-26T13:33:39;97002.44;;;13.30;43.78
49611;BME280;35515;48.766;9.176;2023-03-26T13:36:12;97007.13;;;13.07;44.05
49611;BME280;35515;48.766;9.176;2023-03-26T13:38:50;96999.88;;;13.18;44.11
49611;BME280;35515;48.766;9.176;2023-03-26T13:41:28;96989.97;;;13.01;45.65
49611;BME280;35515;48.766;9.176;2023-03-26T13:44:04;96989.69;;;13.03;44.36
49611;BME280;35515;48.766;9.176;2023-03-26T13:46:37;96988.16;;;13.12;44.30
49611;BME280;35515;48.766;9.176;2023-03-26T13:49:10;96986.25;;;13.13;44.57
49611;BME280;35515;48.766;9.176;2023-03-26T13:51:41;96978.88;;;13.08;43.46
49611;BME280;35515;48.766;9.176;2023-03-26T13:54:17;96984.31;;;13.08;43.20
49611;BME280;35515;48.766;9.176;2023-03-26T13:56:49;96975.59;;;13.06;42.75
49611;BME280;35515;48.766;9.176;2023-03-26T13:59:20;96976.09;;;13.03;42.90
49611;BME280;35515;48.766;9.176;2023-03-26T14:01:51;96980.72;;;13.02;41.85
49611;BME280;35515;48.766;9.176;2023-03-26T14:04:23;96967.91;;;12.98;41.58
49611;BME280;35515;48.766;9.176;2023-03-26T14:06:58;96971.19;;;13.00;41.63
49611;BME280;35515;48.766;9.176;2023-03-26T14:09:35;96954.88;;;13.00;41.68